sensor_id;sensor_type;location;lat;lon;timestamp;P1;durP1;ratioP1;P2;durP2;ratioP2
26953;SDS011;14508;50.924;11.600;2023-09-30T00:00:58;5.25;;;1.52;;
26953;SDS011;14508;50.924;11.600;2023-09-30T00:03:26;5.88;;;2.05;;
26953;SDS011;14508;50.924;11.600;2023-09-30T00:05:55;6.38;;;1.90;;
26953;SDS011;14508;50.924;11.600;2023-09-30T00:08:24;5.40;;;1.75;;
26953;SDS011;14508;50.924;11.600;2023-09-30T00:10:53;5.95;;;1.65;;
26953;SDS011;14508;50.924;11.600;2023-09-30T00:13:21;7.95;;;1.52;;
26953;SDS011;14508;50.924;11.600;2023-09-30T00:15:50;5.90;;;1.38;;
26953;SDS011;14508;50.924;11.600;2023-09-30T00:18:18;2.78;;;1.52;;
26953;SDS011;14508;50.924;11.600;2023-09-30T00:20:46;2.30;;;1.33;;
26953;SDS011;14508;50.924;11.600;2023-09-30T00:23:14;2.45;;;1.30;;
26953;SDS011;14508;50.924;11.600;2023-09-30T00:25:44;3.67;;;1.30;;
26953;SDS011;14508;50.924;11.600;2023-09-30T00:28:12;4.70;;;1.38;;
26953;SDS011;14508;50.924;11.600;2023-09-30T00:30:41;5.30;;;1.10;;
26953;SDS011;14508;50.924;11.600;2023-09-30T00:33:12;3.45;;;1.20;;
26953;SDS011;14508;50.924;11.600;2023-09-30T00:35:41;4.38;;;1.42;;
26953;SDS011;14508;50.924;11.600;2023-09-30T00:38:09;6.20;;;1.60;;
26953;SDS011;14508;50.924;11.600;2023-09-30T00:40:37;3.70;;;1.25;;
26953;SDS011;14508;50.924;11.600;2023-09-30T00:43:06;7.05;;;1.38;;
26953;SDS011;14508;50.924;11.600;2023-09-30T00:45:44;5.65;;;1.08;;
26953;SDS011;14508;50.924;11.600;2023-09-30T00:48:13;8.32;;;1.73;;
26953;SDS011;14508;50.924;11.600;2023-09-30T00:50:41;7.40;;;1.25;;
26953;SDS011;14508;50.924;11.600;2023-09-30T00:53:09;3.72;;;1.13;;
26953;SDS011;14508;50.924;11.600;2023-09-30T00:55:37;4.85;;;1.52;;
26953;SDS011;14508;50.924;11.600;2023-09-30T00:58:07;4.63;;;1.30;;
26953;SDS011;14508;50.924;11.600;2023-09-30T01:00:35;6.88;;;1.60;;
26953;SDS011;14508;50.924;11.600;2023-09-30T01:03:03;4.95;;;2.13;;
26953;SDS011;14508;50.924;11.600;2023-09-30T01:05:33;4.10;;;1.30;;
26953;SDS011;14508;50.924;11.600;2023-09-30T01:08:01;5.70;;;1.30;;
26953;SDS011;14508;50.924;11.600;2023-09-30T01:10:30;6.32;;;1.40;;
26953;SDS011;14508;50.924;11.600;2023-09-30T01:12:58;7.35;;;1.73;;
26953;SDS011;14508;50.924;11.600;2023-09-30T01:15:28;6.45;;;2.28;;
26953;SDS011;14508;50.924;11.600;2023-09-30T01:17:57;4.30;;;1.27;;
26953;SDS011;14508;50.924;11.600;2023-09-30T01:20:26;7.40;;;1.70;;
26953;SDS011;14508;50.924;11.600;2023-09-30T01:22:56;6.03;;;1.50;;
26953;SDS011;14508;50.924;11.600;2023-09-30T01:25:25;7.85;;;1.67;;
26953;SDS011;14508;50.924;11.600;2023-09-30T01:27:53;8.30;;;1.73;;
26953;SDS011;14508;50.924;11.600;2023-09-30T01:30:21;7.90;;;1.92;;
26953;SDS011;14508;50.924;11.600;2023-09-30T01:32:49;11.10;;;1.77;;
26953;SDS011;14508;50.924;11.600;2023-09-30T01:35:18;6.13;;;1.60;;
26953;SDS011;14508;50.924;11.600;2023-09-30T01:37:45;9.10;;;2.05;;
26953;SDS011;14508;50.924;11.600;2023-09-30T01:40:15;10.00;;;2.20;;
26953;SDS011;14508;50.924;11.600;2023-09-30T01:42:44;6.63;;;1.83;;
26953;SDS011;14508;50.924;11.600;2023-09-30T01:45:12;7.78;;;2.33;;
26953;SDS011;14508;50.924;11.600;2023-09-30T01:47:41;6.95;;;2.45;;
26953;SDS011;14508;50.924;11.600;2023-09-30T01:50:09;8.43;;;2.55;;
26953;SDS011;14508;50.924;11.600;2023-09-30T01:52:37;9.07;;;1.77;;
26953;SDS011;14508;50.924;11.600;2023-09-30T01:55:05;6.47;;;1.67;;
26953;SDS011;14508;50.924;11.600;2023-09-30T01:57:36;7.35;;;1.95;;
26953;SDS011;14508;50.924;11.600;2023-09-30T02:00:04;5.50;;;1.48;;
26953;SDS011;14508;50.924;11.600;2023-09-30T02:02:38;9.95;;;2.10;;
26953;SDS011;14508;50.924;11.600;2023-09-30T02:05:06;8.10;;;1.98;;
26953;SDS011;14508;50.924;11.600;2023-09-30T02:07:35;4.90;;;1.90;;
26953;SDS011;14508;50.924;11.600;2023-09-30T02:10:04;7.35;;;2.13;;
26953;SDS011;14508;50.924;11.600;2023-09-30T02:12:36;10.15;;;2.38;;
26953;SDS011;14508;50.924;11.600;2023-09-30T02:15:05;7.40;;;1.77;;
26953;SDS011;14508;50.924;11.600;2023-09-30T02:17:33;10.50;;;2.50;;
26953;SDS011;14508;50.924;11.600;2023-09-30T02:20:02;7.40;;;1.80;;
26953;SDS011;14508;50.924;11.600;2023-09-30T02:22:33;10.65;;;1.88;;
26953;SDS011;14508;50.924;11.600;2023-09-30T02:25:02;8.15;;;2.35;;
26953;SDS011;14508;50.924;11.600;2023-09-30T02:27:33;3.78;;;1.90;;
26953;SDS011;14508;50.924;11.600;2023-09-30T02:30:03;7.00;;;1.92;;
26953;SDS011;14508;50.924;11.600;2023-09-30T02:32:32;9.70;;;2.00;;
26953;SDS011;14508;50.924;11.600;2023-09-30T02:35:00;9.68;;;2.13;;
26953;SDS011;14508;50.924;11.600;2023-09-30T02:37:31;6.25;;;1.95;;
26953;SDS011;14508;50.924;11.600;2023-09-30T02:40:01;11.48;;;1.95;;
26953;SDS011;14508;50.924;11.600;2023-09-30T02:42:30;3.70;;;1.60;;
26953;SDS011;14508;50.924;11.600;2023-09-30T02:45:00;11.82;;;1.95;;
26953;SDS011;14508;50.924;11.600;2023-09-30T02:47:28;8.32;;;2.38;;
26953;SDS011;14508;50.924;11.600;2023-09-30T02:49:58;6.45;;;2.00;;
26953;SDS011;14508;50.924;11.600;2023-09-30T02:52:26;6.07;;;2.00;;
26953;SDS011;14508;50.924;11.600;2023-09-30T02:54:55;7.22;;;1.75;;
26953;SDS011;14508;50.924;11.600;2023-09-30T02:57:24;6.68;;;2.05;;
26953;SDS011;14508;50.924;11.600;2023-09-30T02:59:54;9.95;;;1.90;;
26953;SDS011;14508;50.924;11.600;2023-09-30T03:02:24;5.57;;;1.80;;
26953;SDS011;14508;50.924;11.600;2023-09-30T03:04:52;6.20;;;2.00;;
26953;SDS011;14508;50.924;11.600;2023-09-30T03:07:21;8.23;;;1.80;;
26953;SDS011;14508;50.924;11.600;2023-09-30T03:09:49;7.32;;;1.95;;
26953;SDS011;14508;50.924;11.600;2023-09-30T03:12:19;5.85;;;1.75;;
26953;SDS011;14508;50.924;11.600;2023-09-30T03:14:47;8.13;;;1.70;;
26953;SDS011;14508;50.924;11.600;2023-09-30T03:17:17;12.55;;;1.98;;
26953;SDS011;14508;50.924;11.600;2023-09-30T03:19:46;6.85;;;1.95;;
26953;SDS011;14508;50.924;11.600;2023-09-30T03:22:16;13.13;;;2.25;;
26953;SDS011;14508;50.924;11.600;2023-09-30T03:24:45;8.63;;;2.00;;
26953;SDS011;14508;50.924;11.600;2023-09-30T03:27:13;10.98;;;2.80;;
26953;SDS011;14508;50.924;11.600;2023-09-30T03:29:41;7.28;;;1.80;;
26953;SDS011;14508;50.924;11.600;2023-09-30T03:32:09;6.25;;;1.83;;
26953;SDS011;14508;50.924;11.600;2023-09-30T03:34:37;5.68;;;1.88;;
26953;SDS011;14508;50.924;11.600;2023-09-30T03:37:12;6.47;;;1.67;;
26953;SDS011;14508;50.924;11.600;2023-09-30T03:39:41;9.10;;;1.65;;
26953;SDS011;14508;50.924;11.600;2023-09-30T03:42:09;10.65;;;2.15;;
26953;SDS011;14508;50.924;11.600;2023-09-30T03:44:37;12.85;;;2.40;;
26953;SDS011;14508;50.924;11.600;2023-09-30T03:47:06;7.93;;;2.08;;
26953;SDS011;14508;50.924;11.600;2023-09-30T03:49:34;9.48;;;2.28;;
26953;SDS011;14508;50.924;11.600;2023-09-30T03:52:04;5.28;;;1.60;;
26953;SDS011;14508;50.924;11.600;2023-09-30T03:54:34;8.23;;;2.22;;
26953;SDS011;14508;50.924;11.600;2023-09-30T03:57:02;6.93;;;2.45;;
26953;SDS011;14508;50.924;11.600;2023-09-30T03:59:30;7.47;;;1.83;;
26953;SDS011;14508;50.924;11.600;2023-09-30T04:01:58;10.80;;;1.85;;
26953;SDS011;14508;50.924;11.600;2023-09-30T04:04:27;5.88;;;1.75;;
26953;SDS011;14508;50.924;11.600;2023-09-30T04:06:56;10.38;;;2.10;;
26953;SDS011;14508;50.924;11.600;2023-09-30T04:09:24;10.05;;;1.70;;
26953;SDS011;14508;50.924;11.600;2023-09-30T04:11:53;6.30;;;2.03;;
26953;SDS011;14508;50.924;11.600;2023-09-30T04:14:21;7.00;;;2.00;;
26953;SDS011;14508;50.924;11.600;2023-09-30T04:16:49;6.88;;;2.10;;
26953;SDS011;14508;50.924;11.600;2023-09-30T04:19:17;7.00;;;2.08;;
26953;SDS011;14508;50.924;11.600;2023-09-30T04:21:46;11.00;;;2.08;;
26953;SDS011;14508;50.924;11.600;2023-09-30T04:24:14;5.38;;;1.95;;
26953;SDS011;14508;50.924;11.600;2023-09-30T04:26:43;9.80;;;1.95;;
26953;SDS011;14508;50.924;11.600;2023-09-30T04:29:12;7.53;;;2.20;;
26953;SDS011;14508;50.924;11.600;2023-09-30T04:31:40;6.25;;;1.80;;
26953;SDS011;14508;50.924;11.600;2023-09-30T04:34:08;11.18;;;2.63;;
26953;SDS011;14508;50.924;11.600;2023-09-30T04:36:36;8.15;;;1.95;;
26953;SDS011;14508;50.924;11.600;2023-09-30T04:39:04;7.95;;;1.85;;
26953;SDS011;14508;50.924;11.600;2023-09-30T04:41:34;6.95;;;2.13;;
26953;SDS011;14508;50.924;11.600;2023-09-30T04:44:01;9.38;;;2.05;;
26953;SDS011;14508;50.924;11.600;2023-09-30T04:46:31;7.57;;;2.10;;
26953;SDS011;14508;50.924;11.600;2023-09-30T04:49:00;8.10;;;2.40;;
26953;SDS011;14508;50.924;11.600;2023-09-30T04:51:29;9.57;;;1.90;;
26953;SDS011;14508;50.924;11.600;2023-09-30T04:53:59;8.70;;;2.25;;
26953;SDS011;14508;50.924;11.600;2023-09-30T04:56:28;12.85;;;2.97;;
26953;SDS011;14508;50.924;11.600;2023-09-30T04:58:56;12.68;;;2.13;;
26953;SDS011;14508;50.924;11.600;2023-09-30T05:01:25;15.93;;;2.33;;
26953;SDS011;14508;50.924;11.600;2023-09-30T05:03:54;13.32;;;2.33;;
26953;SDS011;14508;50.924;11.600;2023-09-30T05:06:24;11.98;;;2.17;;
26953;SDS011;14508;50.924;11.600;2023-09-30T05:08:53;6.78;;;2.65;;
26953;SDS011;14508;50.924;11.600;2023-09-30T05:11:21;10.80;;;2.63;;
26953;SDS011;14508;50.924;11.600;2023-09-30T05:13:50;4.75;;;1.80;;
26953;SDS011;14508;50.924;11.600;2023-09-30T05:16:18;9.18;;;1.77;;
26953;SDS011;14508;50.924;11.600;2023-09-30T05:18:47;8.93;;;2.95;;
26953;SDS011;14508;50.924;11.600;2023-09-30T05:21:31;9.55;;;2.10;;
26953;SDS011;14508;50.924;11.600;2023-09-30T05:24:01;9.18;;;2.17;;
26953;SDS011;14508;50.924;11.600;2023-09-30T05:26:31;12.00;;;2.33;;
26953;SDS011;14508;50.924;11.600;2023-09-30T05:29:00;7.93;;;1.85;;
26953;SDS011;14508;50.924;11.600;2023-09-30T05:31:28;9.32;;;2.03;;
26953;SDS011;14508;50.924;11.600;2023-09-30T05:33:57;6.13;;;1.75;;
26953;SDS011;14508;50.924;11.600;2023-09-30T05:36:26;9.60;;;2.42;;
26953;SDS011;14508;50.924;11.600;2023-09-30T05:38:55;8.60;;;2.28;;
26953;SDS011;14508;50.924;11.600;2023-09-30T05:41:24;14.88;;;2.35;;
26953;SDS011;14508;50.924;11.600;2023-09-30T05:43:52;8.63;;;1.83;;
26953;SDS011;14508;50.924;11.600;2023-09-30T05:46:21;11.75;;;2.42;;
26953;SDS011;14508;50.924;11.600;2023-09-30T05:48:50;9.80;;;2.05;;
26953;SDS011;14508;50.924;11.600;2023-09-30T05:51:18;7.60;;;2.42;;
26953;SDS011;14508;50.924;11.600;2023-09-30T05:53:46;8.18;;;2.42;;
26953;SDS011;14508;50.924;11.600;2023-09-30T05:56:16;12.32;;;1.95;;
26953;SDS011;14508;50.924;11.600;2023-09-30T05:58:44;6.38;;;2.10;;
26953;SDS011;14508;50.924;11.600;2023-09-30T06:01:12;8.52;;;1.92;;
26953;SDS011;14508;50.924;11.600;2023-09-30T06:03:42;5.80;;;1.95;;
26953;SDS011;14508;50.924;11.600;2023-09-30T06:06:13;6.50;;;1.80;;
26953;SDS011;14508;50.924;11.600;2023-09-30T06:08:42;7.18;;;2.38;;
26953;SDS011;14508;50.924;11.600;2023-09-30T06:11:17;11.07;;;2.35;;
26953;SDS011;14508;50.924;11.600;2023-09-30T06:13:45;18.98;;;2.65;;
26953;SDS011;14508;50.924;11.600;2023-09-30T06:16:13;12.93;;;2.10;;
26953;SDS011;14508;50.924;11.600;2023-09-30T06:18:42;10.80;;;2.55;;
26953;SDS011;14508;50.924;11.600;2023-09-30T06:21:11;11.85;;;2.42;;
26953;SDS011;14508;50.924;11.600;2023-09-30T06:23:41;16.63;;;2.45;;
26953;SDS011;14508;50.924;11.600;2023-09-30T06:26:09;10.70;;;2.30;;
26953;SDS011;14508;50.924;11.600;2023-09-30T06:28:39;16.38;;;2.67;;
26953;SDS011;14508;50.924;11.600;2023-09-30T06:31:07;9.07;;;2.28;;
26953;SDS011;14508;50.924;11.600;2023-09-30T06:33:36;12.80;;;2.78;;
26953;SDS011;14508;50.924;11.600;2023-09-30T06:36:07;11.75;;;2.35;;
26953;SDS011;14508;50.924;11.600;2023-09-30T06:38:37;8.40;;;2.85;;
26953;SDS011;14508;50.924;11.600;2023-09-30T06:41:05;9.48;;;2.70;;
26953;SDS011;14508;50.924;11.600;2023-09-30T06:43:33;7.88;;;2.28;;
26953;SDS011;14508;50.924;11.600;2023-09-30T06:46:06;8.05;;;1.77;;
26953;SDS011;14508;50.924;11.600;2023-09-30T06:48:35;15.45;;;2.40;;
26953;SDS011;14508;50.924;11.600;2023-09-30T06:51:07;6.78;;;2.22;;
26953;SDS011;14508;50.924;11.600;2023-09-30T06:53:36;7.30;;;2.40;;
26953;SDS011;14508;50.924;11.600;2023-09-30T06:56:04;11.27;;;2.72;;
26953;SDS011;14508;50.924;11.600;2023-09-30T06:58:32;10.13;;;2.50;;
26953;SDS011;14508;50.924;11.600;2023-09-30T07:01:00;7.15;;;2.00;;
26953;SDS011;14508;50.924;11.600;2023-09-30T07:03:30;11.90;;;2.65;;
26953;SDS011;14508;50.924;11.600;2023-09-30T07:05:59;18.80;;;2.92;;
26953;SDS011;14508;50.924;11.600;2023-09-30T07:08:28;12.13;;;3.13;;
26953;SDS011;14508;50.924;11.600;2023-09-30T07:10:57;7.63;;;3.55;;
26953;SDS011;14508;50.924;11.600;2023-09-30T07:13:25;13.57;;;3.65;;
26953;SDS011;14508;50.924;11.600;2023-09-30T07:15:53;15.07;;;3.80;;
26953;SDS011;14508;50.924;11.600;2023-09-30T07:18:21;11.68;;;3.40;;
26953;SDS011;14508;50.924;11.600;2023-09-30T07:20:52;15.07;;;3.70;;
26953;SDS011;14508;50.924;11.600;2023-09-30T07:23:20;11.45;;;4.55;;
26953;SDS011;14508;50.924;11.600;2023-09-30T07:25:48;11.65;;;4.40;;
26953;SDS011;14508;50.924;11.600;2023-09-30T07:28:16;13.93;;;3.28;;
26953;SDS011;14508;50.924;11.600;2023-09-30T07:30:45;14.95;;;3.85;;
26953;SDS011;14508;50.924;11.600;2023-09-30T07:33:13;8.63;;;4.30;;
26953;SDS011;14508;50.924;11.600;2023-09-30T07:35:41;17.83;;;4.68;;
26953;SDS011;14508;50.924;11.600;2023-09-30T07:38:10;19.80;;;5.28;;
26953;SDS011;14508;50.924;11.600;2023-09-30T07:40:38;10.35;;;3.80;;
26953;SDS011;14508;50.924;11.600;2023-09-30T07:43:06;6.03;;;3.65;;
26953;SDS011;14508;50.924;11.600;2023-09-30T07:45:35;8.55;;;3.33;;
26953;SDS011;14508;50.924;11.600;2023-09-30T07:48:04;12.30;;;2.60;;
26953;SDS011;14508;50.924;11.600;2023-09-30T07:50:32;10.20;;;2.90;;
26953;SDS011;14508;50.924;11.600;2023-09-30T07:53:01;10.20;;;3.05;;
26953;SDS011;14508;50.924;11.600;2023-09-30T07:55:30;12.93;;;3.80;;
26953;SDS011;14508;50.924;11.600;2023-09-30T07:57:58;14.07;;;2.83;;
26953;SDS011;14508;50.924;11.600;2023-09-30T08:00:27;8.80;;;3.03;;
26953;SDS011;14508;50.924;11.600;2023-09-30T08:02:55;20.02;;;2.97;;
26953;SDS011;14508;50.924;11.600;2023-09-30T08:05:27;18.58;;;3.40;;
26953;SDS011;14508;50.924;11.600;2023-09-30T08:07:55;12.52;;;2.85;;
26953;SDS011;14508;50.924;11.600;2023-09-30T08:10:23;14.52;;;2.50;;
26953;SDS011;14508;50.924;11.600;2023-09-30T08:12:52;14.98;;;2.42;;
26953;SDS011;14508;50.924;11.600;2023-09-30T08:15:23;10.45;;;2.40;;
26953;SDS011;14508;50.924;11.600;2023-09-30T08:17:52;12.55;;;2.85;;
26953;SDS011;14508;50.924;11.600;2023-09-30T08:20:20;10.05;;;2.55;;
26953;SDS011;14508;50.924;11.600;2023-09-30T08:22:48;12.02;;;2.95;;
26953;SDS011;14508;50.924;11.600;2023-09-30T08:25:17;12.05;;;2.58;;
26953;SDS011;14508;50.924;11.600;2023-09-30T08:27:45;13.60;;;2.10;;
26953;SDS011;14508;50.924;11.600;2023-09-30T08:30:17;11.48;;;2.17;;
26953;SDS011;14508;50.924;11.600;2023-09-30T08:32:45;13.15;;;3.03;;
26953;SDS011;14508;50.924;11.600;2023-09-30T08:35:14;13.80;;;2.97;;
26953;SDS011;14508;50.924;11.600;2023-09-30T08:37:42;14.32;;;2.47;;
26953;SDS011;14508;50.924;11.600;2023-09-30T08:40:10;10.38;;;2.95;;
26953;SDS011;14508;50.924;11.600;2023-09-30T08:42:39;11.88;;;1.90;;
26953;SDS011;14508;50.924;11.600;2023-09-30T08:45:08;12.90;;;2.70;;
26953;SDS011;14508;50.924;11.600;2023-09-30T08:47:42;10.80;;;2.83;;
26953;SDS011;14508;50.924;11.600;2023-09-30T08:50:10;14.18;;;2.38;;
26953;SDS011;14508;50.924;11.600;2023-09-30T08:52:40;16.63;;;3.28;;
26953;SDS011;14508;50.924;11.600;2023-09-30T08:55:10;15.80;;;3.70;;
26953;SDS011;14508;50.924;11.600;2023-09-30T08:57:39;13.00;;;3.10;;
26953;SDS011;14508;50.924;11.600;2023-09-30T09:00:09;14.38;;;2.90;;
26953;SDS011;14508;50.924;11.600;2023-09-30T09:02:39;12.20;;;3.30;;
26953;SDS011;14508;50.924;11.600;2023-09-30T09:05:09;12.32;;;3.03;;
26953;SDS011;14508;50.924;11.600;2023-09-30T09:07:38;14.02;;;2.78;;
26953;SDS011;14508;50.924;11.600;2023-09-30T09:10:07;15.98;;;3.70;;
26953;SDS011;14508;50.924;11.600;2023-09-30T09:12:37;12.57;;;2.78;;
26953;SDS011;14508;50.924;11.600;2023-09-30T09:15:06;9.27;;;2.80;;
26953;SDS011;14508;50.924;11.600;2023-09-30T09:17:40;13.07;;;2.70;;
26953;SDS011;14508;50.924;11.600;2023-09-30T09:20:11;16.50;;;2.80;;
26953;SDS011;14508;50.924;11.600;2023-09-30T09:22:46;14.48;;;2.70;;
26953;SDS011;14508;50.924;11.600;2023-09-30T09:25:17;12.65;;;3.15;;
26953;SDS011;14508;50.924;11.600;2023-09-30T09:27:45;7.97;;;2.80;;
26953;SDS011;14508;50.924;11.600;2023-09-30T09:30:14;12.55;;;2.03;;
26953;SDS011;14508;50.924;11.600;2023-09-30T09:32:52;13.10;;;2.92;;
26953;SDS011;14508;50.924;11.600;2023-09-30T09:35:23;13.60;;;2.67;;
26953;SDS011;14508;50.924;11.600;2023-09-30T09:37:55;13.15;;;2.15;;
26953;SDS011;14508;50.924;11.600;2023-09-30T09:40:25;13.60;;;2.40;;
26953;SDS011;14508;50.924;11.600;2023-09-30T09:42:54;10.77;;;2.83;;
26953;SDS011;14508;50.924;11.600;2023-09-30T09:45:24;11.25;;;2.50;;
26953;SDS011;14508;50.924;11.600;2023-09-30T09:47:53;8.45;;;2.10;;
26953;SDS011;14508;50.924;11.600;2023-09-30T09:50:24;8.65;;;2.33;;
26953;SDS011;14508;50.924;11.600;2023-09-30T09:52:52;11.63;;;2.40;;
26953;SDS011;14508;50.924;11.600;2023-09-30T09:55:22;10.57;;;2.30;;
26953;SDS011;14508;50.924;11.600;2023-09-30T09:57:51;6.60;;;1.63;;
26953;SDS011;14508;50.924;11.600;2023-09-30T10:00:20;12.73;;;2.50;;
26953;SDS011;14508;50.924;11.600;2023-09-30T10:02:50;9.07;;;1.65;;
26953;SDS011;14508;50.924;11.600;2023-09-30T10:05:19;5.05;;;1.52;;
26953;SDS011;14508;50.924;11.600;2023-09-30T10:07:52;8.10;;;1.73;;
26953;SDS011;14508;50.924;11.600;2023-09-30T10:10:24;7.43;;;1.35;;
26953;SDS011;14508;50.924;11.600;2023-09-30T10:12:52;8.98;;;1.92;;
26953;SDS011;14508;50.924;11.600;2023-09-30T10:15:34;7.47;;;1.50;;
26953;SDS011;14508;50.924;11.600;2023-09-30T10:18:03;10.52;;;1.67;;
26953;SDS011;14508;50.924;11.600;2023-09-30T10:23:22;5.07;;;1.42;;
26953;SDS011;14508;50.924;11.600;2023-09-30T10:25:53;7.85;;;1.60;;
26953;SDS011;14508;50.924;11.600;2023-09-30T10:28:37;10.40;;;1.63;;
26953;SDS011;14508;50.924;11.600;2023-09-30T10:31:11;7.57;;;1.55;;
26953;SDS011;14508;50.924;11.600;2023-09-30T10:36:48;7.63;;;1.90;;
26953;SDS011;14508;50.924;11.600;2023-09-30T10:42:43;4.05;;;1.33;;
26953;SDS011;14508;50.924;11.600;2023-09-30T10:51:11;5.53;;;1.20;;
26953;SDS011;14508;50.924;11.600;2023-09-30T10:53:45;7.88;;;1.60;;
26953;SDS011;14508;50.924;11.600;2023-09-30T10:56:20;8.43;;;1.45;;
26953;SDS011;14508;50.924;11.600;2023-09-30T10:58:48;4.90;;;1.65;;
26953;SDS011;14508;50.924;11.600;2023-09-30T11:01:18;8.20;;;1.40;;
26953;SDS011;14508;50.924;11.600;2023-09-30T11:03:48;5.15;;;1.15;;
26953;SDS011;14508;50.924;11.600;2023-09-30T11:06:19;8.63;;;1.17;;
26953;SDS011;14508;50.924;11.600;2023-09-30T11:08:51;4.32;;;1.17;;
26953;SDS011;14508;50.924;11.600;2023-09-30T11:11:32;3.53;;;1.10;;
26953;SDS011;14508;50.924;11.600;2023-09-30T11:14:01;6.13;;;1.75;;
26953;SDS011;14508;50.924;11.600;2023-09-30T11:16:40;8.68;;;1.30;;
26953;SDS011;14508;50.924;11.600;2023-09-30T11:19:09;4.82;;;1.38;;
26953;SDS011;14508;50.924;11.600;2023-09-30T11:21:38;6.82;;;1.23;;
26953;SDS011;14508;50.924;11.600;2023-09-30T11:24:07;6.13;;;1.10;;
26953;SDS011;14508;50.924;11.600;2023-09-30T11:26:37;3.92;;;1.55;;
26953;SDS011;14508;50.924;11.600;2023-09-30T11:29:07;3.92;;;1.23;;
26953;SDS011;14508;50.924;11.600;2023-09-30T11:31:37;3.05;;;1.20;;
26953;SDS011;14508;50.924;11.600;2023-09-30T11:34:06;10.60;;;2.03;;
26953;SDS011;14508;50.924;11.600;2023-09-30T11:36:34;11.23;;;1.83;;
26953;SDS011;14508;50.924;11.600;2023-09-30T11:39:03;6.10;;;1.33;;
26953;SDS011;14508;50.924;11.600;2023-09-30T11:41:33;6.78;;;1.42;;
26953;SDS011;14508;50.924;11.600;2023-09-30T11:44:05;11.07;;;1.38;;
26953;SDS011;14508;50.924;11.600;2023-09-30T11:46:50;5.97;;;1.15;;
26953;SDS011;14508;50.924;11.600;2023-09-30T11:49:26;6.63;;;1.25;;
26953;SDS011;14508;50.924;11.600;2023-09-30T11:51:55;6.75;;;1.52;;
26953;SDS011;14508;50.924;11.600;2023-09-30T11:54:29;7.18;;;1.63;;
26953;SDS011;14508;50.924;11.600;2023-09-30T11:56:59;2.78;;;1.20;;
26953;SDS011;14508;50.924;11.600;2023-09-30T11:59:29;8.35;;;1.50;;
26953;SDS011;14508;50.924;11.600;2023-09-30T12:01:57;7.45;;;0.90;;
26953;SDS011;14508;50.924;11.600;2023-09-30T12:04:29;6.78;;;1.10;;
26953;SDS011;14508;50.924;11.600;2023-09-30T12:06:57;5.30;;;1.30;;
26953;SDS011;14508;50.924;11.600;2023-09-30T12:09:26;3.42;;;1.05;;
26953;SDS011;14508;50.924;11.600;2023-09-30T12:11:55;18.30;;;2.22;;
26953;SDS011;14508;50.924;11.600;2023-09-30T12:14:24;13.15;;;1.63;;
26953;SDS011;14508;50.924;11.600;2023-09-30T12:16:53;7.38;;;1.75;;
26953;SDS011;14508;50.924;11.600;2023-09-30T12:19:21;6.65;;;1.58;;
26953;SDS011;14508;50.924;11.600;2023-09-30T12:21:53;11.48;;;1.48;;
26953;SDS011;14508;50.924;11.600;2023-09-30T12:24:22;11.20;;;1.83;;
26953;SDS011;14508;50.924;11.600;2023-09-30T12:26:50;8.18;;;1.48;;
26953;SDS011;14508;50.924;11.600;2023-09-30T12:29:19;7.80;;;1.65;;
26953;SDS011;14508;50.924;11.600;2023-09-30T12:31:49;8.85;;;1.83;;
26953;SDS011;14508;50.924;11.600;2023-09-30T12:34:22;5.07;;;1.40;;
26953;SDS011;14508;50.924;11.600;2023-09-30T12:36:52;5.93;;;1.40;;
26953;SDS011;14508;50.924;11.600;2023-09-30T12:39:21;4.13;;;1.38;;
26953;SDS011;14508;50.924;11.600;2023-09-30T12:41:52;4.30;;;1.27;;
26953;SDS011;14508;50.924;11.600;2023-09-30T12:44:20;8.30;;;0.80;;
26953;SDS011;14508;50.924;11.600;2023-09-30T12:46:49;3.58;;;1.25;;
26953;SDS011;14508;50.924;11.600;2023-09-30T12:49:18;3.42;;;0.88;;
26953;SDS011;14508;50.924;11.600;2023-09-30T12:51:48;4.35;;;1.23;;
26953;SDS011;14508;50.924;11.600;2023-09-30T12:54:16;9.10;;;1.20;;
26953;SDS011;14508;50.924;11.600;2023-09-30T12:56:45;8.75;;;1.30;;
26953;SDS011;14508;50.924;11.600;2023-09-30T12:59:14;11.73;;;1.80;;
26953;SDS011;14508;50.924;11.600;2023-09-30T13:01:43;5.25;;;1.67;;
26953;SDS011;14508;50.924;11.600;2023-09-30T13:04:13;6.70;;;1.58;;
26953;SDS011;14508;50.924;11.600;2023-09-30T13:06:41;8.00;;;1.95;;
26953;SDS011;14508;50.924;11.600;2023-09-30T13:09:11;7.30;;;1.33;;
26953;SDS011;14508;50.924;11.600;2023-09-30T13:11:40;6.20;;;1.67;;
26953;SDS011;14508;50.924;11.600;2023-09-30T13:14:08;12.23;;;1.60;;
26953;SDS011;14508;50.924;11.600;2023-09-30T13:16:36;7.55;;;1.77;;
26953;SDS011;14508;50.924;11.600;2023-09-30T13:19:04;7.88;;;1.42;;
26953;SDS011;14508;50.924;11.600;2023-09-30T13:21:32;7.70;;;1.60;;
26953;SDS011;14508;50.924;11.600;2023-09-30T13:24:00;4.05;;;1.05;;
26953;SDS011;14508;50.924;11.600;2023-09-30T13:26:29;5.57;;;1.38;;
26953;SDS011;14508;50.924;11.600;2023-09-30T13:28:57;5.20;;;1.40;;
26953;SDS011;14508;50.924;11.600;2023-09-30T13:31:25;9.40;;;1.40;;
26953;SDS011;14508;50.924;11.600;2023-09-30T13:33:53;9.60;;;1.73;;
26953;SDS011;14508;50.924;11.600;2023-09-30T13:36:21;8.80;;;1.60;;
26953;SDS011;14508;50.924;11.600;2023-09-30T13:38:49;6.57;;;1.65;;
26953;SDS011;14508;50.924;11.600;2023-09-30T13:41:18;6.20;;;1.50;;
26953;SDS011;14508;50.924;11.600;2023-09-30T13:43:47;7.20;;;1.15;;
26953;SDS011;14508;50.924;11.600;2023-09-30T13:46:15;9.18;;;1.20;;
26953;SDS011;14508;50.924;11.600;2023-09-30T13:48:44;6.63;;;1.50;;
26953;SDS011;14508;50.924;11.600;2023-09-30T13:51:13;4.45;;;1.30;;
26953;SDS011;14508;50.924;11.600;2023-09-30T13:53:41;6.28;;;1.33;;
26953;SDS011;14508;50.924;11.600;2023-09-30T13:56:09;8.10;;;1.42;;
26953;SDS011;14508;50.924;11.600;2023-09-30T13:58:38;6.13;;;1.98;;
26953;SDS011;14508;50.924;11.600;2023-09-30T14:01:07;8.82;;;1.10;;
26953;SDS011;14508;50.924;11.600;2023-09-30T14:03:37;9.50;;;1.42;;
26953;SDS011;14508;50.924;11.600;2023-09-30T14:06:09;9.38;;;1.35;;
26953;SDS011;14508;50.924;11.600;2023-09-30T14:08:38;5.25;;;1.50;;
26953;SDS011;14508;50.924;11.600;2023-09-30T14:11:09;8.77;;;1.30;;
26953;SDS011;14508;50.924;11.600;2023-09-30T14:13:37;7.90;;;1.27;;
26953;SDS011;14508;50.924;11.600;2023-09-30T14:16:07;9.95;;;1.30;;
26953;SDS011;14508;50.924;11.600;2023-09-30T14:18:36;5.35;;;1.15;;
26953;SDS011;14508;50.924;11.600;2023-09-30T14:21:05;8.68;;;1.38;;
26953;SDS011;14508;50.924;11.600;2023-09-30T14:23:33;7.13;;;2.95;;
26953;SDS011;14508;50.924;11.600;2023-09-30T14:26:05;8.20;;;1.75;;
26953;SDS011;14508;50.924;11.600;2023-09-30T14:28:37;6.57;;;1.50;;
26953;SDS011;14508;50.924;11.600;2023-09-30T14:31:07;7.50;;;1.95;;
26953;SDS011;14508;50.924;11.600;2023-09-30T14:33:35;7.35;;;1.40;;
26953;SDS011;14508;50.924;11.600;2023-09-30T14:36:04;5.68;;;1.40;;
26953;SDS011;14508;50.924;11.600;2023-09-30T14:38:33;9.38;;;1.50;;
26953;SDS011;14508;50.924;11.600;2023-09-30T14:41:01;10.50;;;1.48;;
26953;SDS011;14508;50.924;11.600;2023-09-30T14:43:33;5.50;;;1.20;;
26953;SDS011;14508;50.924;11.600;2023-09-30T14:46:01;6.40;;;1.30;;
26953;SDS011;14508;50.924;11.600;2023-09-30T14:48:31;6.55;;;1.25;;
26953;SDS011;14508;50.924;11.600;2023-09-30T14:50:59;7.38;;;2.03;;
26953;SDS011;14508;50.924;11.600;2023-09-30T14:53:29;6.80;;;1.40;;
26953;SDS011;14508;50.924;11.600;2023-09-30T14:55:57;6.25;;;0.82;;
26953;SDS011;14508;50.924;11.600;2023-09-30T14:58:25;8.02;;;1.30;;